createdAt,value
2018-09-24T07:14:23.747Z,8.70
2018-09-24T07:19:34.639Z,9.00
2018-09-24T07:24:52.765Z,9.50
2018-09-24T07:30:04.268Z,10.30
2018-09-24T07:35:08.157Z,10.90
2018-09-24T07:40:11.631Z,11.10
2018-09-24T07:45:14.464Z,11.20
2018-09-24T07:50:17.048Z,11.90
2018-09-24T07:55:15.289Z,12.40
2018-09-24T08:00:13.075Z,12.30
2018-09-24T08:05:12.017Z,12.60
2018-09-24T08:10:08.352Z,12.80
2018-09-24T08:15:05.089Z,13.30
2018-09-24T08:20:02.091Z,13.30
2018-09-24T08:24:59.021Z,13.70
2018-09-24T08:29:49.425Z,14.10
2018-09-24T08:34:45.200Z,14.20
2018-09-24T08:39:36.710Z,14.60
2018-09-24T08:44:28.677Z,14.90
2018-09-24T08:49:23.928Z,15.20
2018-09-24T08:54:15.391Z,15.60
2018-09-24T08:59:09.582Z,15.60
2018-09-24T09:04:04.659Z,16.20
2018-09-24T09:08:56.037Z,16.40
2018-09-24T09:13:47.978Z,16.60
2018-09-24T09:18:43.171Z,16.40
2018-09-24T09:23:34.578Z,16.10
2018-09-24T09:28:29.662Z,16.10
2018-09-24T09:33:22.742Z,16.00
2018-09-24T09:38:14.342Z,16.30
2018-09-24T09:43:09.619Z,16.20
2018-09-24T09:48:00.979Z,16.30
2018-09-24T09:52:53.390Z,16.30
2018-09-24T09:57:50.357Z,16.40
2018-09-24T10:02:49.894Z,16.80
2018-09-24T10:07:40.590Z,17.00
2018-09-24T10:12:34.327Z,16.60
2018-09-24T10:17:27.793Z,15.90
2018-09-24T10:22:21.023Z,15.20
2018-09-24T10:27:14.972Z,15.00
2018-09-24T10:32:11.193Z,15.10
2018-09-24T10:37:05.282Z,15.10
2018-09-24T10:41:56.343Z,15.50
2018-09-24T10:46:52.862Z,15.40
2018-09-24T10:51:48.588Z,15.20
2018-09-24T10:56:41.896Z,15.50
2018-09-24T11:01:32.699Z,15.40
2018-09-24T11:06:29.993Z,15.20
2018-09-24T11:11:24.068Z,15.10
2018-09-24T11:16:19.945Z,15.40
2018-09-24T11:21:13.763Z,15.70
2018-09-24T11:26:07.358Z,15.80
2018-09-24T11:31:02.037Z,16.20
2018-09-24T11:35:56.693Z,16.60
2018-09-24T11:40:50.187Z,16.80
2018-09-24T11:45:43.282Z,17.30
2018-09-24T11:50:33.838Z,17.40
2018-09-24T11:55:25.014Z,16.70
2018-09-24T12:00:18.545Z,16.10
2018-09-24T12:05:12.827Z,15.80
2018-09-24T12:10:03.594Z,15.50
2018-09-24T12:14:56.921Z,15.30
2018-09-24T12:19:51.184Z,15.00
2018-09-24T12:24:42.324Z,15.00
2018-09-24T12:29:34.202Z,15.30
2018-09-24T12:34:29.439Z,15.30
2018-09-24T12:39:26.398Z,15.60
2018-09-24T12:44:20.688Z,16.30
2018-09-24T12:49:16.852Z,17.10
2018-09-24T12:54:10.220Z,16.70
2018-09-24T12:59:02.567Z,16.10
2018-09-24T13:03:58.777Z,15.60
2018-09-24T13:08:49.150Z,15.40
2018-09-24T13:13:41.284Z,15.20
2018-09-24T13:18:33.437Z,15.80
2018-09-24T13:23:27.905Z,16.30
2018-09-24T13:28:24.872Z,16.70
2018-09-24T13:33:18.131Z,16.90
2018-09-24T13:38:11.834Z,17.40
2018-09-24T13:43:02.907Z,17.70
2018-09-24T13:47:54.461Z,17.70
2018-09-24T13:52:46.058Z,17.60
2018-09-24T13:57:40.862Z,17.70
2018-09-24T14:02:34.019Z,17.70
2018-09-24T14:07:25.010Z,17.60
2018-09-24T14:12:16.399Z,17.30
2018-09-24T14:17:08.047Z,16.90
2018-09-24T14:22:02.475Z,16.60
2018-09-24T14:26:53.502Z,16.40
2018-09-24T14:31:45.204Z,16.50
2018-09-24T14:36:37.046Z,16.90
2018-09-24T14:41:30.686Z,17.10
2018-09-24T14:46:21.891Z,17.00
2018-09-24T14:51:13.388Z,16.90
2018-09-24T14:56:05.043Z,16.70
2018-09-24T15:00:59.624Z,16.40
2018-09-24T15:05:53.566Z,16.20
2018-09-24T15:10:47.223Z,15.90
2018-09-24T15:15:41.339Z,15.90
2018-09-24T15:20:33.172Z,15.70
2018-09-24T15:25:24.408Z,15.60
2018-09-24T15:30:19.134Z,15.30
2018-09-24T15:35:09.757Z,15.10
2018-09-24T15:40:04.802Z,15.00
2018-09-24T15:44:58.876Z,14.90
2018-09-24T15:49:52.072Z,14.80
2018-09-24T15:54:46.522Z,14.70
2018-09-24T15:59:45.988Z,14.60
2018-09-24T16:04:37.241Z,14.60
2018-09-24T16:09:30.422Z,14.50
2018-09-24T16:14:24.802Z,14.40
2018-09-24T16:19:15.872Z,14.50
2018-09-24T16:24:10.912Z,14.60
2018-09-24T16:29:06.975Z,14.60
2018-09-24T16:34:00.336Z,14.40
2018-09-24T16:38:56.654Z,14.10
2018-09-24T16:43:49.980Z,13.80
2018-09-24T16:48:48.723Z,13.50
2018-09-24T16:53:46.854Z,13.20
2018-09-24T16:58:46.751Z,13.00
2018-09-24T17:03:43.845Z,12.90
2018-09-24T17:08:47.524Z,12.70
2018-09-24T17:13:48.970Z,12.60
2018-09-24T17:18:49.288Z,12.50
2018-09-24T17:23:53.054Z,12.50
2018-09-24T17:28:59.768Z,12.30
2018-09-24T17:33:57.779Z,12.20
2018-09-24T17:38:58.433Z,12.10
2018-09-24T17:44:05.104Z,12.00
2018-09-24T17:49:13.427Z,11.90
2018-09-24T17:54:15.648Z,11.80
2018-09-24T17:59:19.717Z,11.70
2018-09-24T18:04:27.957Z,11.60
2018-09-24T18:09:36.416Z,11.50
2018-09-24T18:14:48.308Z,11.50
2018-09-24T18:19:49.649Z,11.40
2018-09-24T18:24:53.480Z,11.40
2018-09-24T18:30:06.008Z,11.40
2018-09-24T18:35:08.423Z,11.50
2018-09-24T18:40:17.985Z,11.50
2018-09-24T18:45:19.951Z,11.60
2018-09-24T18:50:29.555Z,11.50
2018-09-24T18:55:33.394Z,11.40
2018-09-24T19:00:43.822Z,11.30
2018-09-24T19:05:54.477Z,11.20
2018-09-24T19:11:06.360Z,11.10
2018-09-24T19:16:12.356Z,11.00
2018-09-24T19:21:27.663Z,11.00
2018-09-24T19:26:41.037Z,11.00
2018-09-24T19:31:52.705Z,11.00
2018-09-24T19:37:04.826Z,11.00
2018-09-24T19:42:13.523Z,10.90
2018-09-24T19:47:22.397Z,10.70
2018-09-24T19:52:36.079Z,10.50
2018-09-24T19:57:49.251Z,10.30
2018-09-24T20:02:58.722Z,10.10
2018-09-24T20:08:19.550Z,10.00
2018-09-24T20:18:54.174Z,9.80
2018-09-24T20:24:11.521Z,9.70
2018-09-24T20:29:30.545Z,9.70
2018-09-24T20:34:54.588Z,9.60
2018-09-24T20:40:21.381Z,9.50
2018-09-24T20:45:42.711Z,9.50
2018-09-24T20:51:01.882Z,9.50
2018-09-24T20:56:22.083Z,9.50
2018-09-24T21:06:57.573Z,9.60
2018-09-24T21:12:11.498Z,9.50
2018-09-24T21:33:07.917Z,9.50
2018-09-24T21:38:21.169Z,9.20
2018-09-24T21:43:42.476Z,9.10
2018-09-24T22:20:29.203Z,9.00
2018-09-24T22:36:23.459Z,8.40
